sensor_id;sensor_type;location;lat;lon;timestamp;temperature;humidity
5621;DHT22;2832;50.864;12.186;2023-05-14T00:02:17;18.90;99.90
5621;DHT22;2832;50.864;12.186;2023-05-14T00:04:45;18.80;99.90
5621;DHT22;2832;50.864;12.186;2023-05-14T00:07:14;18.80;99.90
5621;DHT22;2832;50.864;12.186;2023-05-14T00:09:43;18.80;99.90
5621;DHT22;2832;50.864;12.186;2023-05-14T00:12:11;18.80;99.90
5621;DHT22;2832;50.864;12.186;2023-05-14T00:14:39;18.80;99.90
5621;DHT22;2832;50.864;12.186;2023-05-14T01:18:55;18.50;99.90
5621;DHT22;2832;50.864;12.186;2023-05-14T01:21:34;18.50;99.90
5621;DHT22;2832;50.864;12.186;2023-05-14T01:24:03;18.40;99.90
5621;DHT22;2832;50.864;12.186;2023-05-14T01:26:31;18.40;99.90
5621;DHT22;2832;50.864;12.186;2023-05-14T01:29:02;18.40;99.90
5621;DHT22;2832;50.864;12.186;2023-05-14T01:31:32;18.40;99.90
5621;DHT22;2832;50.864;12.186;2023-05-14T01:34:04;18.40;99.90
5621;DHT22;2832;50.864;12.186;2023-05-14T01:36:35;18.40;99.90
5621;DHT22;2832;50.864;12.186;2023-05-14T01:39:03;18.30;99.90
5621;DHT22;2832;50.864;12.186;2023-05-14T01:41:35;18.30;99.90
5621;DHT22;2832;50.864;12.186;2023-05-14T01:44:08;18.20;99.90
5621;DHT22;2832;50.864;12.186;2023-05-14T01:46:36;18.20;99.90
5621;DHT22;2832;50.864;12.186;2023-05-14T01:49:04;18.20;99.90
5621;DHT22;2832;50.864;12.186;2023-05-14T01:51:34;18.20;99.90
5621;DHT22;2832;50.864;12.186;2023-05-14T01:54:01;18.20;99.90
5621;DHT22;2832;50.864;12.186;2023-05-14T01:56:30;18.20;99.90
5621;DHT22;2832;50.864;12.186;2023-05-14T01:58:58;18.20;99.90
5621;DHT22;2832;50.864;12.186;2023-05-14T02:01:25;18.20;99.90
5621;DHT22;2832;50.864;12.186;2023-05-14T02:03:54;18.20;99.90
5621;DHT22;2832;50.864;12.186;2023-05-14T02:06:22;18.20;99.90
5621;DHT22;2832;50.864;12.186;2023-05-14T02:08:52;18.10;99.90
5621;DHT22;2832;50.864;12.186;2023-05-14T02:11:20;18.10;99.90
5621;DHT22;2832;50.864;12.186;2023-05-14T02:13:48;18.10;99.90
5621;DHT22;2832;50.864;12.186;2023-05-14T02:16:16;18.10;99.90
5621;DHT22;2832;50.864;12.186;2023-05-14T02:18:45;18.10;99.90
5621;DHT22;2832;50.864;12.186;2023-05-14T02:21:13;18.10;99.90
5621;DHT22;2832;50.864;12.186;2023-05-14T02:23:42;18.00;99.90
5621;DHT22;2832;50.864;12.186;2023-05-14T02:26:12;18.00;99.90
5621;DHT22;2832;50.864;12.186;2023-05-14T02:28:39;18.00;99.90
5621;DHT22;2832;50.864;12.186;2023-05-14T02:31:07;18.00;99.90
5621;DHT22;2832;50.864;12.186;2023-05-14T02:33:35;18.00;99.90
5621;DHT22;2832;50.864;12.186;2023-05-14T02:36:03;18.00;99.90
5621;DHT22;2832;50.864;12.186;2023-05-14T02:38:31;17.90;99.90
5621;DHT22;2832;50.864;12.186;2023-05-14T02:40:58;17.90;99.90
5621;DHT22;2832;50.864;12.186;2023-05-14T02:43:27;17.90;99.90
5621;DHT22;2832;50.864;12.186;2023-05-14T02:45:55;17.90;99.90
5621;DHT22;2832;50.864;12.186;2023-05-14T02:48:23;17.90;99.90
5621;DHT22;2832;50.864;12.186;2023-05-14T02:50:51;17.90;99.90
5621;DHT22;2832;50.864;12.186;2023-05-14T02:53:21;17.90;99.90
5621;DHT22;2832;50.864;12.186;2023-05-14T02:55:48;17.90;99.90
5621;DHT22;2832;50.864;12.186;2023-05-14T02:58:16;17.90;99.90
5621;DHT22;2832;50.864;12.186;2023-05-14T03:00:45;17.90;99.90
5621;DHT22;2832;50.864;12.186;2023-05-14T03:03:13;17.80;99.90
5621;DHT22;2832;50.864;12.186;2023-05-14T03:05:40;17.90;99.90
5621;DHT22;2832;50.864;12.186;2023-05-14T03:08:09;17.80;99.90
5621;DHT22;2832;50.864;12.186;2023-05-14T03:10:37;17.80;99.90
5621;DHT22;2832;50.864;12.186;2023-05-14T03:13:06;17.80;99.90
5621;DHT22;2832;50.864;12.186;2023-05-14T03:15:35;17.70;99.90
5621;DHT22;2832;50.864;12.186;2023-05-14T07:19:03;17.70;99.90
5621;DHT22;2832;50.864;12.186;2023-05-14T07:21:31;17.70;99.90
5621;DHT22;2832;50.864;12.186;2023-05-14T07:23:59;17.70;99.90
5621;DHT22;2832;50.864;12.186;2023-05-14T07:26:33;17.80;99.90
5621;DHT22;2832;50.864;12.186;2023-05-14T07:29:06;17.80;99.90
5621;DHT22;2832;50.864;12.186;2023-05-14T07:31:40;17.80;99.90
5621;DHT22;2832;50.864;12.186;2023-05-14T07:34:14;17.80;99.90
5621;DHT22;2832;50.864;12.186;2023-05-14T07:36:43;17.80;99.90
5621;DHT22;2832;50.864;12.186;2023-05-14T07:39:12;17.80;99.90
5621;DHT22;2832;50.864;12.186;2023-05-14T07:41:39;17.80;99.90
5621;DHT22;2832;50.864;12.186;2023-05-14T07:44:07;17.80;99.90
5621;DHT22;2832;50.864;12.186;2023-05-14T07:46:34;17.90;99.90
5621;DHT22;2832;50.864;12.186;2023-05-14T07:49:04;17.90;99.90
5621;DHT22;2832;50.864;12.186;2023-05-14T07:51:35;17.90;99.90
5621;DHT22;2832;50.864;12.186;2023-05-14T07:54:04;18.00;99.90
5621;DHT22;2832;50.864;12.186;2023-05-14T07:56:32;17.90;99.90
5621;DHT22;2832;50.864;12.186;2023-05-14T07:59:01;18.00;99.90
5621;DHT22;2832;50.864;12.186;2023-05-14T08:01:28;18.00;99.90
5621;DHT22;2832;50.864;12.186;2023-05-14T08:03:57;17.90;99.90
5621;DHT22;2832;50.864;12.186;2023-05-14T08:06:24;18.00;99.90
5621;DHT22;2832;50.864;12.186;2023-05-14T08:08:57;18.00;99.90
5621;DHT22;2832;50.864;12.186;2023-05-14T08:11:25;18.00;99.90
5621;DHT22;2832;50.864;12.186;2023-05-14T08:13:56;18.00;99.90
5621;DHT22;2832;50.864;12.186;2023-05-14T08:16:27;18.00;99.90
5621;DHT22;2832;50.864;12.186;2023-05-14T08:19:01;17.90;99.90
5621;DHT22;2832;50.864;12.186;2023-05-14T10:22:39;18.90;99.20
5621;DHT22;2832;50.864;12.186;2023-05-14T10:25:07;18.70;98.80
5621;DHT22;2832;50.864;12.186;2023-05-14T10:27:37;18.70;99.00
5621;DHT22;2832;50.864;12.186;2023-05-14T10:30:09;18.60;99.10
5621;DHT22;2832;50.864;12.186;2023-05-14T10:32:39;18.60;99.00
5621;DHT22;2832;50.864;12.186;2023-05-14T10:35:16;18.60;99.10
5621;DHT22;2832;50.864;12.186;2023-05-14T10:37:55;18.60;99.30
5621;DHT22;2832;50.864;12.186;2023-05-14T10:40:24;18.50;99.40
5621;DHT22;2832;50.864;12.186;2023-05-14T10:42:54;18.60;99.60
5621;DHT22;2832;50.864;12.186;2023-05-14T10:45:26;18.50;99.60
5621;DHT22;2832;50.864;12.186;2023-05-14T10:47:56;18.40;99.60
5621;DHT22;2832;50.864;12.186;2023-05-14T10:50:25;18.50;99.70
5621;DHT22;2832;50.864;12.186;2023-05-14T10:52:56;18.50;99.90
5621;DHT22;2832;50.864;12.186;2023-05-14T10:55:25;18.50;99.90
5621;DHT22;2832;50.864;12.186;2023-05-14T10:57:52;18.50;99.90
5621;DHT22;2832;50.864;12.186;2023-05-14T11:00:24;18.50;99.90
5621;DHT22;2832;50.864;12.186;2023-05-14T11:02:55;18.50;99.90
5621;DHT22;2832;50.864;12.186;2023-05-14T11:05:24;18.50;99.90
5621;DHT22;2832;50.864;12.186;2023-05-14T11:07:56;18.50;99.90
5621;DHT22;2832;50.864;12.186;2023-05-14T11:10:25;18.50;99.70
5621;DHT22;2832;50.864;12.186;2023-05-14T11:12:56;18.60;99.80
5621;DHT22;2832;50.864;12.186;2023-05-14T11:15:25;18.60;99.40
5621;DHT22;2832;50.864;12.186;2023-05-14T11:17:53;18.50;99.30
5621;DHT22;2832;50.864;12.186;2023-05-14T11:20:21;18.50;99.30
5621;DHT22;2832;50.864;12.186;2023-05-14T11:22:49;18.60;99.80
5621;DHT22;2832;50.864;12.186;2023-05-14T11:25:19;18.60;99.60
5621;DHT22;2832;50.864;12.186;2023-05-14T11:27:49;18.70;99.50
5621;DHT22;2832;50.864;12.186;2023-05-14T11:30:21;18.60;99.30
5621;DHT22;2832;50.864;12.186;2023-05-14T11:32:49;18.60;99.40
5621;DHT22;2832;50.864;12.186;2023-05-14T11:35:19;18.70;99.60
5621;DHT22;2832;50.864;12.186;2023-05-14T11:37:49;18.70;99.50
5621;DHT22;2832;50.864;12.186;2023-05-14T11:40:22;18.70;99.30
5621;DHT22;2832;50.864;12.186;2023-05-14T11:42:50;18.70;99.40
5621;DHT22;2832;50.864;12.186;2023-05-14T11:45:24;18.70;99.10
5621;DHT22;2832;50.864;12.186;2023-05-14T11:47:55;18.70;99.60
5621;DHT22;2832;50.864;12.186;2023-05-14T11:50:25;18.70;99.50
5621;DHT22;2832;50.864;12.186;2023-05-14T11:52:59;18.80;99.50
5621;DHT22;2832;50.864;12.186;2023-05-14T11:55:28;18.90;99.50
5621;DHT22;2832;50.864;12.186;2023-05-14T11:57:56;18.90;99.40
5621;DHT22;2832;50.864;12.186;2023-05-14T12:00:25;18.90;99.10
5621;DHT22;2832;50.864;12.186;2023-05-14T12:02:54;18.90;99.10
5621;DHT22;2832;50.864;12.186;2023-05-14T12:05:23;18.90;99.10
5621;DHT22;2832;50.864;12.186;2023-05-14T12:07:55;18.90;99.00
5621;DHT22;2832;50.864;12.186;2023-05-14T12:10:40;18.90;98.90
5621;DHT22;2832;50.864;12.186;2023-05-14T12:13:14;18.90;98.90
5621;DHT22;2832;50.864;12.186;2023-05-14T12:15:44;18.90;98.80
5621;DHT22;2832;50.864;12.186;2023-05-14T12:18:13;18.90;99.10
5621;DHT22;2832;50.864;12.186;2023-05-14T12:20:46;18.90;98.90
5621;DHT22;2832;50.864;12.186;2023-05-14T15:21:19;18.10;98.30
5621;DHT22;2832;50.864;12.186;2023-05-14T15:23:47;18.00;98.40
5621;DHT22;2832;50.864;12.186;2023-05-14T15:26:15;18.10;98.20
5621;DHT22;2832;50.864;12.186;2023-05-14T15:28:43;18.20;98.50
5621;DHT22;2832;50.864;12.186;2023-05-14T15:31:10;18.30;98.50
5621;DHT22;2832;50.864;12.186;2023-05-14T15:33:38;18.30;98.20
5621;DHT22;2832;50.864;12.186;2023-05-14T15:36:07;18.40;98.30
5621;DHT22;2832;50.864;12.186;2023-05-14T15:38:36;18.50;98.30
5621;DHT22;2832;50.864;12.186;2023-05-14T15:41:05;18.60;98.50
5621;DHT22;2832;50.864;12.186;2023-05-14T15:43:33;18.40;98.80
5621;DHT22;2832;50.864;12.186;2023-05-14T15:46:05;18.40;98.60
5621;DHT22;2832;50.864;12.186;2023-05-14T15:48:33;18.50;98.90
5621;DHT22;2832;50.864;12.186;2023-05-14T15:51:01;18.50;99.30
5621;DHT22;2832;50.864;12.186;2023-05-14T15:53:29;18.70;99.50
5621;DHT22;2832;50.864;12.186;2023-05-14T15:55:58;18.80;99.60
5621;DHT22;2832;50.864;12.186;2023-05-14T15:58:27;18.90;99.70
5621;DHT22;2832;50.864;12.186;2023-05-14T16:00:54;19.10;99.70
5621;DHT22;2832;50.864;12.186;2023-05-14T16:03:22;19.10;99.60
5621;DHT22;2832;50.864;12.186;2023-05-14T16:05:50;19.10;99.70
5621;DHT22;2832;50.864;12.186;2023-05-14T16:08:17;19.10;99.60
5621;DHT22;2832;50.864;12.186;2023-05-14T16:10:47;19.20;99.60
5621;DHT22;2832;50.864;12.186;2023-05-14T16:13:22;18.70;98.90
5621;DHT22;2832;50.864;12.186;2023-05-14T16:15:55;18.30;98.50
5621;DHT22;2832;50.864;12.186;2023-05-14T16:18:27;18.10;99.10
5621;DHT22;2832;50.864;12.186;2023-05-14T16:20:55;18.20;99.40
5621;DHT22;2832;50.864;12.186;2023-05-14T20:12:18;19.30;99.90
5621;DHT22;2832;50.864;12.186;2023-05-14T20:14:47;19.30;99.90
5621;DHT22;2832;50.864;12.186;2023-05-14T20:17:15;19.30;99.90
5621;DHT22;2832;50.864;12.186;2023-05-14T20:19:43;19.30;99.90
5621;DHT22;2832;50.864;12.186;2023-05-14T20:22:12;19.30;99.90
5621;DHT22;2832;50.864;12.186;2023-05-14T20:24:40;19.20;99.90
5621;DHT22;2832;50.864;12.186;2023-05-14T20:27:09;19.30;99.90
5621;DHT22;2832;50.864;12.186;2023-05-14T20:29:38;19.20;99.90
5621;DHT22;2832;50.864;12.186;2023-05-14T20:32:07;19.20;99.90
5621;DHT22;2832;50.864;12.186;2023-05-14T20:34:34;19.20;99.90
5621;DHT22;2832;50.864;12.186;2023-05-14T20:37:03;19.30;99.90
5621;DHT22;2832;50.864;12.186;2023-05-14T20:39:31;19.20;99.90
5621;DHT22;2832;50.864;12.186;2023-05-14T20:42:01;19.20;99.90
5621;DHT22;2832;50.864;12.186;2023-05-14T20:44:28;19.20;99.90
5621;DHT22;2832;50.864;12.186;2023-05-14T20:46:58;19.20;99.90
5621;DHT22;2832;50.864;12.186;2023-05-14T20:49:26;19.10;99.90
5621;DHT22;2832;50.864;12.186;2023-05-14T20:51:54;19.10;99.90
5621;DHT22;2832;50.864;12.186;2023-05-14T20:54:22;19.10;99.90
5621;DHT22;2832;50.864;12.186;2023-05-14T20:56:50;19.10;99.90
5621;DHT22;2832;50.864;12.186;2023-05-14T20:59:19;19.10;99.90
5621;DHT22;2832;50.864;12.186;2023-05-14T21:01:47;19.10;99.90
5621;DHT22;2832;50.864;12.186;2023-05-14T21:04:16;19.10;99.90
5621;DHT22;2832;50.864;12.186;2023-05-14T21:06:45;19.10;99.90
5621;DHT22;2832;50.864;12.186;2023-05-14T21:09:13;19.00;99.90
5621;DHT22;2832;50.864;12.186;2023-05-14T21:11:41;19.10;99.90
5621;DHT22;2832;50.864;12.186;2023-05-14T21:14:11;19.10;99.90
5621;DHT22;2832;50.864;12.186;2023-05-14T21:16:40;19.10;99.90
5621;DHT22;2832;50.864;12.186;2023-05-14T21:19:10;19.00;99.90
5621;DHT22;2832;50.864;12.186;2023-05-14T21:21:39;19.00;99.90
5621;DHT22;2832;50.864;12.186;2023-05-14T22:23:03;18.70;99.90
5621;DHT22;2832;50.864;12.186;2023-05-14T22:25:31;18.60;99.90
5621;DHT22;2832;50.864;12.186;2023-05-14T22:27:58;18.60;99.90
5621;DHT22;2832;50.864;12.186;2023-05-14T22:30:26;18.60;99.90
5621;DHT22;2832;50.864;12.186;2023-05-14T22:32:54;18.60;99.90
5621;DHT22;2832;50.864;12.186;2023-05-14T22:35:21;18.50;99.90
5621;DHT22;2832;50.864;12.186;2023-05-14T22:37:49;18.50;99.90
5621;DHT22;2832;50.864;12.186;2023-05-14T22:40:19;18.50;99.90
5621;DHT22;2832;50.864;12.186;2023-05-14T22:42:47;18.50;99.90
5621;DHT22;2832;50.864;12.186;2023-05-14T22:45:15;18.50;99.90
5621;DHT22;2832;50.864;12.186;2023-05-14T22:47:43;18.50;99.90
5621;DHT22;2832;50.864;12.186;2023-05-14T22:50:12;18.50;99.90
5621;DHT22;2832;50.864;12.186;2023-05-14T22:52:39;18.50;99.90
5621;DHT22;2832;50.864;12.186;2023-05-14T22:55:08;18.50;99.90
5621;DHT22;2832;50.864;12.186;2023-05-14T22:57:38;18.50;99.90
5621;DHT22;2832;50.864;12.186;2023-05-14T23:00:07;18.40;99.90
5621;DHT22;2832;50.864;12.186;2023-05-14T23:02:35;18.40;99.90
5621;DHT22;2832;50.864;12.186;2023-05-14T23:05:03;18.40;99.90
5621;DHT22;2832;50.864;12.186;2023-05-14T23:07:30;18.40;99.90
5621;DHT22;2832;50.864;12.186;2023-05-14T23:10:00;18.40;99.90
5621;DHT22;2832;50.864;12.186;2023-05-14T23:12:27;18.40;99.90
5621;DHT22;2832;50.864;12.186;2023-05-14T23:14:56;18.40;99.90
5621;DHT22;2832;50.864;12.186;2023-05-14T23:17:24;18.40;99.90
5621;DHT22;2832;50.864;12.186;2023-05-14T23:19:53;18.40;99.90
5621;DHT22;2832;50.864;12.186;2023-05-14T23:22:21;18.40;99.90
